sensor_id;sensor_type;location;lat;lon;timestamp;pressure;altitude;pressure_sealevel;temperature;humidity
8941;BME280;4505;43.406;23.226;2023-09-19T00:01:08;100124.22;;;16.66;100.00
8941;BME280;4505;43.406;23.226;2023-09-19T00:03:37;100123.97;;;16.73;100.00
8941;BME280;4505;43.406;23.226;2023-09-19T00:06:04;100124.78;;;16.78;100.00
8941;BME280;4505;43.406;23.226;2023-09-19T00:08:32;100118.88;;;16.81;100.00
8941;BME280;4505;43.406;23.226;2023-09-19T00:10:59;100123.72;;;16.79;100.00
8941;BME280;4505;43.406;23.226;2023-09-19T00:13:31;100129.91;;;16.85;100.00
8941;BME280;4505;43.406;23.226;2023-09-19T00:15:58;100129.09;;;16.84;100.00
8941;BME280;4505;43.406;23.226;2023-09-19T00:18:25;100128.03;;;16.85;100.00
8941;BME280;4505;43.406;23.226;2023-09-19T00:20:58;100119.19;;;16.90;100.00
8941;BME280;4505;43.406;23.226;2023-09-19T00:23:24;100120.28;;;16.89;100.00
8941;BME280;4505;43.406;23.226;2023-09-19T00:25:51;100118.13;;;16.86;100.00
8941;BME280;4505;43.406;23.226;2023-09-19T00:28:17;100114.59;;;16.80;100.00
8941;BME280;4505;43.406;23.226;2023-09-19T00:30:45;100114.59;;;16.80;100.00
8941;BME280;4505;43.406;23.226;2023-09-19T00:33:15;100113.50;;;16.76;100.00
8941;BME280;4505;43.406;23.226;2023-09-19T00:35:46;100112.72;;;16.76;100.00
8941;BME280;4505;43.406;23.226;2023-09-19T00:38:14;100117.56;;;16.79;100.00
8941;BME280;4505;43.406;23.226;2023-09-19T00:40:43;100118.34;;;16.74;100.00
8941;BME280;4505;43.406;23.226;2023-09-19T00:43:09;100113.50;;;16.76;100.00
8941;BME280;4505;43.406;23.226;2023-09-19T00:45:36;100115.41;;;16.76;100.00
8941;BME280;4505;43.406;23.226;2023-09-19T00:48:04;100111.63;;;16.72;100.00
8941;BME280;4505;43.406;23.226;2023-09-19T00:50:37;100106.22;;;16.67;100.00
8941;BME280;4505;43.406;23.226;2023-09-19T00:53:07;100107.63;;;16.79;100.00
8941;BME280;4505;43.406;23.226;2023-09-19T00:55:36;100113.75;;;16.75;100.00
8941;BME280;4505;43.406;23.226;2023-09-19T00:58:03;100111.84;;;16.65;100.00
8941;BME280;4505;43.406;23.226;2023-09-19T01:00:31;100119.06;;;16.55;100.00
8941;BME280;4505;43.406;23.226;2023-09-19T01:02:59;100117.56;;;16.27;100.00
8941;BME280;4505;43.406;23.226;2023-09-19T01:05:26;100125.50;;;16.07;100.00
8941;BME280;4505;43.406;23.226;2023-09-19T01:07:52;100136.50;;;16.16;100.00
8941;BME280;4505;43.406;23.226;2023-09-19T01:10:19;100136.94;;;16.44;100.00
8941;BME280;4505;43.406;23.226;2023-09-19T01:12:51;100126.44;;;16.33;100.00
8941;BME280;4505;43.406;23.226;2023-09-19T01:15:21;100125.66;;;16.37;100.00
8941;BME280;4505;43.406;23.226;2023-09-19T01:17:52;100128.72;;;16.14;100.00
8941;BME280;4505;43.406;23.226;2023-09-19T01:20:25;100131.66;;;16.13;100.00
8941;BME280;4505;43.406;23.226;2023-09-19T01:22:56;100126.63;;;16.21;100.00
8941;BME280;4505;43.406;23.226;2023-09-19T01:28:24;100117.88;;;16.36;100.00
8941;BME280;4505;43.406;23.226;2023-09-19T01:30:57;100114.13;;;16.37;100.00
8941;BME280;4505;43.406;23.226;2023-09-19T01:33:25;100115.06;;;16.16;100.00
8941;BME280;4505;43.406;23.226;2023-09-19T01:35:52;100120.44;;;16.16;100.00
8941;BME280;4505;43.406;23.226;2023-09-19T01:38:22;100123.56;;;16.03;100.00
8941;BME280;4505;43.406;23.226;2023-09-19T01:40:52;100123.34;;;16.09;100.00
8941;BME280;4505;43.406;23.226;2023-09-19T01:43:25;100118.53;;;16.11;100.00
8941;BME280;4505;43.406;23.226;2023-09-19T01:45:56;100114.41;;;15.94;100.00
8941;BME280;4505;43.406;23.226;2023-09-19T01:48:29;100126.53;;;16.06;100.00
8941;BME280;4505;43.406;23.226;2023-09-19T01:51:00;100121.28;;;16.21;100.00
8941;BME280;4505;43.406;23.226;2023-09-19T01:53:30;100117.81;;;16.26;100.00
8941;BME280;4505;43.406;23.226;2023-09-19T01:55:59;100119.16;;;16.28;100.00
8941;BME280;4505;43.406;23.226;2023-09-19T01:58:29;100117.00;;;16.25;100.00
8941;BME280;4505;43.406;23.226;2023-09-19T02:01:00;100113.50;;;16.20;100.00
8941;BME280;4505;43.406;23.226;2023-09-19T02:03:28;100128.44;;;16.11;100.00
8941;BME280;4505;43.406;23.226;2023-09-19T02:05:55;100122.41;;;15.89;100.00
8941;BME280;4505;43.406;23.226;2023-09-19T02:08:22;100119.75;;;15.94;100.00
8941;BME280;4505;43.406;23.226;2023-09-19T02:10:50;100121.38;;;15.95;100.00
8941;BME280;4505;43.406;23.226;2023-09-19T02:13:18;100121.38;;;15.95;100.00
8941;BME280;4505;43.406;23.226;2023-09-19T02:15:45;100126.25;;;16.03;100.00
8941;BME280;4505;43.406;23.226;2023-09-19T02:18:12;100128.31;;;15.91;100.00
8941;BME280;4505;43.406;23.226;2023-09-19T02:20:40;100121.94;;;15.97;100.00
8941;BME280;4505;43.406;23.226;2023-09-19T02:23:07;100126.72;;;15.95;100.00
8941;BME280;4505;43.406;23.226;2023-09-19T02:25:34;100128.13;;;16.02;100.00
8941;BME280;4505;43.406;23.226;2023-09-19T02:28:01;100125.94;;;15.94;100.00
8941;BME280;4505;43.406;23.226;2023-09-19T02:30:28;100127.03;;;15.98;100.00
8941;BME280;4505;43.406;23.226;2023-09-19T02:32:54;100132.72;;;16.07;100.00
8941;BME280;4505;43.406;23.226;2023-09-19T02:35:21;100119.91;;;16.14;100.00
8941;BME280;4505;43.406;23.226;2023-09-19T02:37:50;100126.25;;;15.98;100.00
8941;BME280;4505;43.406;23.226;2023-09-19T02:40:17;100125.47;;;16.02;100.00
8941;BME280;4505;43.406;23.226;2023-09-19T02:42:47;100109.91;;;16.04;100.00
8941;BME280;4505;43.406;23.226;2023-09-19T02:45:15;100116.00;;;15.95;100.00
8941;BME280;4505;43.406;23.226;2023-09-19T02:47:42;100117.59;;;15.91;100.00
8941;BME280;4505;43.406;23.226;2023-09-19T02:50:09;100117.28;;;15.82;100.00
8941;BME280;4505;43.406;23.226;2023-09-19T02:52:36;100114.78;;;15.70;100.00
8941;BME280;4505;43.406;23.226;2023-09-19T02:55:04;100116.97;;;15.73;100.00
8941;BME280;4505;43.406;23.226;2023-09-19T02:57:34;100109.97;;;15.72;100.00
8941;BME280;4505;43.406;23.226;2023-09-19T03:00:01;100120.22;;;15.81;100.00
8941;BME280;4505;43.406;23.226;2023-09-19T03:02:33;100112.34;;;15.69;100.00
8941;BME280;4505;43.406;23.226;2023-09-19T03:05:00;100115.28;;;15.67;100.00
8941;BME280;4505;43.406;23.226;2023-09-19T03:07:28;100116.97;;;15.78;100.00
8941;BME280;4505;43.406;23.226;2023-09-19T03:09:54;100124.19;;;15.73;100.00
8941;BME280;4505;43.406;23.226;2023-09-19T03:12:22;100118.81;;;15.73;100.00
8941;BME280;4505;43.406;23.226;2023-09-19T03:14:49;100130.34;;;15.73;100.00
8941;BME280;4505;43.406;23.226;2023-09-19T03:17:16;100121.09;;;15.96;100.00
8941;BME280;4505;43.406;23.226;2023-09-19T03:19:45;100120.34;;;16.01;100.00
8941;BME280;4505;43.406;23.226;2023-09-19T03:22:12;100113.38;;;16.00;100.00
8941;BME280;4505;43.406;23.226;2023-09-19T03:24:38;100110.16;;;16.03;100.00
8941;BME280;4505;43.406;23.226;2023-09-19T03:27:05;100108.34;;;16.08;100.00
8941;BME280;4505;43.406;23.226;2023-09-19T03:29:33;100109.69;;;16.06;100.00
8941;BME280;4505;43.406;23.226;2023-09-19T03:31:59;100112.63;;;16.09;100.00
8941;BME280;4505;43.406;23.226;2023-09-19T03:34:26;100113.38;;;16.00;100.00
8941;BME280;4505;43.406;23.226;2023-09-19T03:36:53;100116.88;;;16.00;100.00
8941;BME280;4505;43.406;23.226;2023-09-19T03:39:20;100118.19;;;15.98;100.00
8941;BME280;4505;43.406;23.226;2023-09-19T03:41:47;100122.97;;;15.91;100.00
8941;BME280;4505;43.406;23.226;2023-09-19T03:44:14;100111.16;;;15.92;100.00
8941;BME280;4505;43.406;23.226;2023-09-19T03:46:42;100114.41;;;15.94;100.00
8941;BME280;4505;43.406;23.226;2023-09-19T03:49:09;100115.97;;;15.85;100.00
8941;BME280;4505;43.406;23.226;2023-09-19T03:51:37;100109.06;;;15.94;100.00
8941;BME280;4505;43.406;23.226;2023-09-19T03:54:06;100105.31;;;15.95;100.00
8941;BME280;4505;43.406;23.226;2023-09-19T03:56:33;100107.72;;;15.96;100.00
8941;BME280;4505;43.406;23.226;2023-09-19T03:58:59;100102.03;;;15.83;100.00
8941;BME280;4505;43.406;23.226;2023-09-19T04:01:26;100110.31;;;15.81;100.00
8941;BME280;4505;43.406;23.226;2023-09-19T04:03:54;100117.47;;;15.75;100.00
8941;BME280;4505;43.406;23.226;2023-09-19T04:06:22;100115.72;;;15.86;100.00
8941;BME280;4505;43.406;23.226;2023-09-19T04:08:48;100116.53;;;15.92;100.00
8941;BME280;4505;43.406;23.226;2023-09-19T04:11:15;100120.63;;;16.04;100.00
8941;BME280;4505;43.406;23.226;2023-09-19T04:13:41;100120.13;;;16.12;100.00
8941;BME280;4505;43.406;23.226;2023-09-19T04:16:08;100122.81;;;16.12;100.00
8941;BME280;4505;43.406;23.226;2023-09-19T04:18:35;100117.75;;;16.16;100.00
8941;BME280;4505;43.406;23.226;2023-09-19T04:21:04;100108.16;;;16.20;100.00
8941;BME280;4505;43.406;23.226;2023-09-19T04:23:31;100115.41;;;16.24;100.00
8941;BME280;4505;43.406;23.226;2023-09-19T04:25:58;100117.28;;;16.29;100.00
8941;BME280;4505;43.406;23.226;2023-09-19T04:28:25;100113.03;;;16.33;100.00
8941;BME280;4505;43.406;23.226;2023-09-19T04:30:52;100103.41;;;16.37;100.00
8941;BME280;4505;43.406;23.226;2023-09-19T04:33:20;100109.53;;;16.32;100.00
8941;BME280;4505;43.406;23.226;2023-09-19T04:35:48;100111.41;;;16.32;100.00
8941;BME280;4505;43.406;23.226;2023-09-19T04:38:17;100118.94;;;16.35;100.00
8941;BME280;4505;43.406;23.226;2023-09-19T04:40:44;100121.63;;;16.40;100.00
8941;BME280;4505;43.406;23.226;2023-09-19T04:43:10;100113.97;;;16.53;100.00
8941;BME280;4505;43.406;23.226;2023-09-19T04:45:38;100116.97;;;16.62;100.00
8941;BME280;4505;43.406;23.226;2023-09-19T04:48:05;100110.50;;;16.58;100.00
8941;BME280;4505;43.406;23.226;2023-09-19T04:50:34;100114.81;;;16.69;100.00
8941;BME280;4505;43.406;23.226;2023-09-19T04:53:02;100106.28;;;16.82;100.00
8941;BME280;4505;43.406;23.226;2023-09-19T04:55:31;100109.56;;;16.94;100.00
8941;BME280;4505;43.406;23.226;2023-09-19T04:57:58;100118.44;;;17.14;100.00
8941;BME280;4505;43.406;23.226;2023-09-19T05:00:24;100114.16;;;17.24;100.00
8941;BME280;4505;43.406;23.226;2023-09-19T05:02:54;100112.81;;;17.36;100.00
8941;BME280;4505;43.406;23.226;2023-09-19T05:05:21;100099.94;;;17.43;100.00
8941;BME280;4505;43.406;23.226;2023-09-19T05:07:48;100095.94;;;17.51;100.00
8941;BME280;4505;43.406;23.226;2023-09-19T05:10:16;100096.78;;;17.61;100.00
8941;BME280;4505;43.406;23.226;2023-09-19T05:12:45;100099.47;;;17.66;100.00
8941;BME280;4505;43.406;23.226;2023-09-19T05:15:13;100095.13;;;17.75;100.00
8941;BME280;4505;43.406;23.226;2023-09-19T05:17:42;100096.22;;;17.74;100.00
8941;BME280;4505;43.406;23.226;2023-09-19T05:20:16;100090.00;;;17.89;100.00
8941;BME280;4505;43.406;23.226;2023-09-19T05:22:44;100085.44;;;17.89;100.00
8941;BME280;4505;43.406;23.226;2023-09-19T05:25:11;100075.78;;;17.93;100.00
8941;BME280;4505;43.406;23.226;2023-09-19T05:27:41;100071.16;;;18.09;100.00
8941;BME280;4505;43.406;23.226;2023-09-19T05:30:09;100076.78;;;18.17;100.00
8941;BME280;4505;43.406;23.226;2023-09-19T05:32:39;100074.59;;;18.39;100.00
8941;BME280;4505;43.406;23.226;2023-09-19T05:35:06;100073.44;;;18.56;100.00
8941;BME280;4505;43.406;23.226;2023-09-19T05:37:34;100079.59;;;18.61;100.00
8941;BME280;4505;43.406;23.226;2023-09-19T05:40:01;100074.19;;;18.66;100.00
8941;BME280;4505;43.406;23.226;2023-09-19T05:42:32;100070.44;;;18.67;100.00
8941;BME280;4505;43.406;23.226;2023-09-19T05:44:59;100061.78;;;18.75;100.00
8941;BME280;4505;43.406;23.226;2023-09-19T05:47:27;100061.63;;;18.95;100.00
8941;BME280;4505;43.406;23.226;2023-09-19T05:49:54;100055.38;;;19.05;100.00
8941;BME280;4505;43.406;23.226;2023-09-19T05:52:20;100061.47;;;19.20;100.00
8941;BME280;4505;43.406;23.226;2023-09-19T05:54:47;100064.91;;;19.31;100.00
8941;BME280;4505;43.406;23.226;2023-09-19T05:57:14;100063.53;;;19.67;100.00
8941;BME280;4505;43.406;23.226;2023-09-19T05:59:41;100062.78;;;19.23;100.00
8941;BME280;4505;43.406;23.226;2023-09-19T06:02:08;100070.16;;;19.51;100.00
8941;BME280;4505;43.406;23.226;2023-09-19T06:04:37;100076.91;;;19.48;100.00
8941;BME280;4505;43.406;23.226;2023-09-19T06:07:06;100064.53;;;20.00;100.00
8941;BME280;4505;43.406;23.226;2023-09-19T06:09:32;100066.47;;;20.23;100.00
8941;BME280;4505;43.406;23.226;2023-09-19T06:11:59;100062.97;;;20.22;100.00
8941;BME280;4505;43.406;23.226;2023-09-19T06:14:29;100066.16;;;20.48;100.00
8941;BME280;4505;43.406;23.226;2023-09-19T06:16:56;100053.78;;;20.65;100.00
8941;BME280;4505;43.406;23.226;2023-09-19T06:19:22;100051.81;;;20.89;100.00
8941;BME280;4505;43.406;23.226;2023-09-19T06:21:53;100042.66;;;21.09;100.00
8941;BME280;4505;43.406;23.226;2023-09-19T06:24:20;100046.66;;;21.30;100.00
8941;BME280;4505;43.406;23.226;2023-09-19T06:26:46;100042.06;;;21.31;100.00
8941;BME280;4505;43.406;23.226;2023-09-19T06:29:14;100041.56;;;21.42;100.00
8941;BME280;4505;43.406;23.226;2023-09-19T06:31:41;100044.69;;;21.49;100.00
8941;BME280;4505;43.406;23.226;2023-09-19T06:34:09;100050.03;;;21.54;100.00
8941;BME280;4505;43.406;23.226;2023-09-19T06:36:36;100046.88;;;21.15;100.00
8941;BME280;4505;43.406;23.226;2023-09-19T06:39:04;100040.81;;;20.67;100.00
8941;BME280;4505;43.406;23.226;2023-09-19T06:41:32;100037.25;;;20.72;100.00
8941;BME280;4505;43.406;23.226;2023-09-19T06:43:58;100053.44;;;20.90;100.00
8941;BME280;4505;43.406;23.226;2023-09-19T06:46:25;100053.44;;;20.90;100.00
8941;BME280;4505;43.406;23.226;2023-09-19T06:48:51;100052.66;;;21.08;100.00
8941;BME280;4505;43.406;23.226;2023-09-19T06:51:18;100057.31;;;21.21;100.00
8941;BME280;4505;43.406;23.226;2023-09-19T06:53:45;100072.03;;;20.73;100.00
8941;BME280;4505;43.406;23.226;2023-09-19T06:56:13;100078.13;;;20.60;100.00
8941;BME280;4505;43.406;23.226;2023-09-19T06:58:39;100079.78;;;20.38;100.00
8941;BME280;4505;43.406;23.226;2023-09-19T07:01:08;100079.88;;;20.51;100.00
8941;BME280;4505;43.406;23.226;2023-09-19T07:03:35;100070.56;;;20.62;100.00
8941;BME280;4505;43.406;23.226;2023-09-19T07:06:01;100068.91;;;20.85;100.00
8941;BME280;4505;43.406;23.226;2023-09-19T07:08:29;100067.72;;;20.91;100.00
8941;BME280;4505;43.406;23.226;2023-09-19T07:10:56;100073.69;;;21.11;100.00
8941;BME280;4505;43.406;23.226;2023-09-19T07:13:24;100069.38;;;21.29;100.00
8941;BME280;4505;43.406;23.226;2023-09-19T07:16:04;100070.59;;;21.69;100.00
8941;BME280;4505;43.406;23.226;2023-09-19T07:18:31;100068.41;;;21.39;100.00
8941;BME280;4505;43.406;23.226;2023-09-19T07:20:58;100069.50;;;20.63;100.00
8941;BME280;4505;43.406;23.226;2023-09-19T07:23:29;100076.09;;;20.52;100.00
8941;BME280;4505;43.406;23.226;2023-09-19T07:26:00;100068.50;;;20.96;100.00
8941;BME280;4505;43.406;23.226;2023-09-19T07:28:28;100059.31;;;20.97;100.00
8941;BME280;4505;43.406;23.226;2023-09-19T07:30:54;100069.25;;;21.66;100.00
8941;BME280;4505;43.406;23.226;2023-09-19T07:33:21;100069.25;;;21.98;100.00
8941;BME280;4505;43.406;23.226;2023-09-19T07:35:50;100057.75;;;22.33;100.00
8941;BME280;4505;43.406;23.226;2023-09-19T07:38:17;100053.03;;;22.39;100.00
8941;BME280;4505;43.406;23.226;2023-09-19T07:40:47;100049.75;;;22.28;100.00
8941;BME280;4505;43.406;23.226;2023-09-19T07:43:14;100048.31;;;22.31;100.00
8941;BME280;4505;43.406;23.226;2023-09-19T07:45:42;100044.72;;;22.22;100.00
8941;BME280;4505;43.406;23.226;2023-09-19T07:48:08;100044.22;;;22.60;100.00
8941;BME280;4505;43.406;23.226;2023-09-19T07:50:39;100051.25;;;22.97;100.00
8941;BME280;4505;43.406;23.226;2023-09-19T07:53:08;100049.50;;;23.01;100.00
8941;BME280;4505;43.406;23.226;2023-09-19T07:55:38;100041.25;;;23.06;100.00
8941;BME280;4505;43.406;23.226;2023-09-19T07:58:06;100052.53;;;22.37;100.00
8941;BME280;4505;43.406;23.226;2023-09-19T08:00:33;100035.59;;;22.58;100.00
8941;BME280;4505;43.406;23.226;2023-09-19T08:03:01;100034.28;;;22.92;100.00
8941;BME280;4505;43.406;23.226;2023-09-19T08:05:29;100045.81;;;22.48;100.00
8941;BME280;4505;43.406;23.226;2023-09-19T08:07:55;100041.81;;;22.05;100.00
8941;BME280;4505;43.406;23.226;2023-09-19T08:10:24;100042.09;;;22.44;100.00
8941;BME280;4505;43.406;23.226;2023-09-19T08:12:52;100028.63;;;22.80;100.00
8941;BME280;4505;43.406;23.226;2023-09-19T08:15:23;100036.34;;;23.08;100.00
8941;BME280;4505;43.406;23.226;2023-09-19T08:17:50;100045.44;;;23.26;100.00
8941;BME280;4505;43.406;23.226;2023-09-19T08:20:18;100041.19;;;23.55;100.00
8941;BME280;4505;43.406;23.226;2023-09-19T08:22:46;100031.41;;;24.16;100.00
8941;BME280;4505;43.406;23.226;2023-09-19T08:25:14;100035.56;;;23.52;100.00
8941;BME280;4505;43.406;23.226;2023-09-19T08:27:43;100042.25;;;22.88;100.00
8941;BME280;4505;43.406;23.226;2023-09-19T08:30:13;100052.00;;;22.76;100.00
8941;BME280;4505;43.406;23.226;2023-09-19T08:32:39;100036.53;;;23.56;100.00
8941;BME280;4505;43.406;23.226;2023-09-19T08:35:07;100035.22;;;24.06;100.00
8941;BME280;4505;43.406;23.226;2023-09-19T08:37:35;100044.47;;;23.83;100.00
8941;BME280;4505;43.406;23.226;2023-09-19T08:40:02;100039.53;;;23.76;100.00
8941;BME280;4505;43.406;23.226;2023-09-19T08:42:31;100035.34;;;23.70;100.00
8941;BME280;4505;43.406;23.226;2023-09-19T08:44:58;100037.16;;;24.14;100.00
8941;BME280;4505;43.406;23.226;2023-09-19T08:47:26;100037.59;;;23.46;100.00
8941;BME280;4505;43.406;23.226;2023-09-19T08:50:00;100042.47;;;23.14;100.00
8941;BME280;4505;43.406;23.226;2023-09-19T08:52:32;100042.50;;;23.00;100.00
8941;BME280;4505;43.406;23.226;2023-09-19T08:55:01;100033.91;;;23.20;100.00
8941;BME280;4505;43.406;23.226;2023-09-19T08:57:29;100042.84;;;22.85;100.00
8941;BME280;4505;43.406;23.226;2023-09-19T09:00:01;100033.13;;;23.06;100.00
8941;BME280;4505;43.406;23.226;2023-09-19T09:02:31;100024.63;;;23.65;100.00
8941;BME280;4505;43.406;23.226;2023-09-19T09:04:59;100031.38;;;23.46;100.00
8941;BME280;4505;43.406;23.226;2023-09-19T09:07:25;100019.16;;;24.18;100.00
8941;BME280;4505;43.406;23.226;2023-09-19T09:09:53;100033.63;;;23.83;100.00
8941;BME280;4505;43.406;23.226;2023-09-19T09:12:21;100025.81;;;23.07;100.00
8941;BME280;4505;43.406;23.226;2023-09-19T09:14:49;100022.00;;;23.82;100.00
8941;BME280;4505;43.406;23.226;2023-09-19T09:17:15;100018.84;;;24.20;100.00
8941;BME280;4505;43.406;23.226;2023-09-19T09:19:45;100023.44;;;24.19;100.00
8941;BME280;4505;43.406;23.226;2023-09-19T09:22:12;100013.88;;;23.91;100.00
8941;BME280;4505;43.406;23.226;2023-09-19T09:24:50;100008.34;;;24.61;100.00
8941;BME280;4505;43.406;23.226;2023-09-19T09:27:19;100011.69;;;24.49;100.00
8941;BME280;4505;43.406;23.226;2023-09-19T09:29:47;100010.50;;;24.16;100.00
8941;BME280;4505;43.406;23.226;2023-09-19T09:32:18;100001.22;;;24.73;100.00
8941;BME280;4505;43.406;23.226;2023-09-19T09:34:45;100003.94;;;24.90;100.00
8941;BME280;4505;43.406;23.226;2023-09-19T09:37:13;100009.19;;;24.78;100.00
8941;BME280;4505;43.406;23.226;2023-09-19T09:39:40;100010.75;;;24.62;100.00
8941;BME280;4505;43.406;23.226;2023-09-19T09:42:21;100018.31;;;24.74;100.00
8941;BME280;4505;43.406;23.226;2023-09-19T09:45:07;100021.91;;;24.52;100.00
8941;BME280;4505;43.406;23.226;2023-09-19T09:47:42;100029.44;;;24.64;100.00
8941;BME280;4505;43.406;23.226;2023-09-19T09:50:23;100022.00;;;24.22;100.00
8941;BME280;4505;43.406;23.226;2023-09-19T09:52:54;100022.19;;;23.86;100.00
8941;BME280;4505;43.406;23.226;2023-09-19T09:55:26;100023.81;;;24.26;100.00
8941;BME280;4505;43.406;23.226;2023-09-19T09:57:59;100020.09;;;24.22;100.00
8941;BME280;4505;43.406;23.226;2023-09-19T10:00:53;100016.56;;;24.13;100.00
8941;BME280;4505;43.406;23.226;2023-09-19T10:03:24;100014.81;;;24.17;100.00
8941;BME280;4505;43.406;23.226;2023-09-19T10:05:57;100011.84;;;24.44;100.00
8941;BME280;4505;43.406;23.226;2023-09-19T10:08:34;100009.28;;;23.91;100.00
8941;BME280;4505;43.406;23.226;2023-09-19T10:11:13;100010.66;;;23.80;100.00
8941;BME280;4505;43.406;23.226;2023-09-19T10:13:41;100013.69;;;24.91;100.00
8941;BME280;4505;43.406;23.226;2023-09-19T10:16:10;100017.97;;;25.26;100.00
8941;BME280;4505;43.406;23.226;2023-09-19T10:18:40;100024.53;;;25.34;100.00
8941;BME280;4505;43.406;23.226;2023-09-19T10:21:08;100023.09;;;25.11;100.00
8941;BME280;4505;43.406;23.226;2023-09-19T10:23:35;100014.97;;;25.83;100.00
8941;BME280;4505;43.406;23.226;2023-09-19T10:26:02;100010.13;;;25.33;100.00
8941;BME280;4505;43.406;23.226;2023-09-19T10:28:30;100018.59;;;26.33;100.00
8941;BME280;4505;43.406;23.226;2023-09-19T10:30:57;100007.28;;;25.13;100.00
8941;BME280;4505;43.406;23.226;2023-09-19T10:33:25;100001.94;;;26.34;100.00
8941;BME280;4505;43.406;23.226;2023-09-19T10:35:52;99991.09;;;27.29;93.32
8941;BME280;4505;43.406;23.226;2023-09-19T10:38:22;99992.41;;;26.20;100.00
8941;BME280;4505;43.406;23.226;2023-09-19T10:40:50;99985.31;;;25.52;100.00
8941;BME280;4505;43.406;23.226;2023-09-19T10:43:21;99980.00;;;25.64;100.00
8941;BME280;4505;43.406;23.226;2023-09-19T10:45:50;99985.72;;;26.67;100.00
8941;BME280;4505;43.406;23.226;2023-09-19T10:48:19;99979.31;;;26.84;93.95
8941;BME280;4505;43.406;23.226;2023-09-19T10:50:52;99981.38;;;26.16;99.94
8941;BME280;4505;43.406;23.226;2023-09-19T10:53:24;99981.66;;;25.86;100.00
8941;BME280;4505;43.406;23.226;2023-09-19T10:55:53;99983.88;;;25.55;100.00
8941;BME280;4505;43.406;23.226;2023-09-19T10:58:25;99978.50;;;25.75;100.00
8941;BME280;4505;43.406;23.226;2023-09-19T11:00:54;99975.28;;;26.40;100.00
8941;BME280;4505;43.406;23.226;2023-09-19T11:03:22;99977.81;;;26.45;96.58
8941;BME280;4505;43.406;23.226;2023-09-19T11:06:05;99976.09;;;26.11;99.60
8941;BME280;4505;43.406;23.226;2023-09-19T11:14:38;99964.16;;;26.04;100.00
8941;BME280;4505;43.406;23.226;2023-09-19T11:25:52;99941.44;;;27.03;90.46
8941;BME280;4505;43.406;23.226;2023-09-19T11:28:29;99937.59;;;27.04;88.45
8941;BME280;4505;43.406;23.226;2023-09-19T11:30:56;99929.16;;;28.38;82.14
8941;BME280;4505;43.406;23.226;2023-09-19T11:33:24;99929.38;;;28.84;75.82
8941;BME280;4505;43.406;23.226;2023-09-19T11:36:03;99919.84;;;28.78;76.34
8941;BME280;4505;43.406;23.226;2023-09-19T11:46:52;99916.56;;;27.37;87.38
8941;BME280;4505;43.406;23.226;2023-09-19T11:49:25;99910.38;;;27.96;84.25
8941;BME280;4505;43.406;23.226;2023-09-19T11:51:55;99917.94;;;28.15;80.17
8941;BME280;4505;43.406;23.226;2023-09-19T11:54:22;99918.97;;;27.86;81.91
8941;BME280;4505;43.406;23.226;2023-09-19T11:56:50;99911.84;;;27.94;80.14
8941;BME280;4505;43.406;23.226;2023-09-19T11:59:19;99899.88;;;28.62;76.04
8941;BME280;4505;43.406;23.226;2023-09-19T12:01:50;99904.06;;;28.87;73.95
8941;BME280;4505;43.406;23.226;2023-09-19T12:04:21;99905.56;;;29.12;73.25
8941;BME280;4505;43.406;23.226;2023-09-19T12:07:03;99905.06;;;29.38;68.77
8941;BME280;4505;43.406;23.226;2023-09-19T12:09:29;99903.22;;;28.99;70.84
8941;BME280;4505;43.406;23.226;2023-09-19T12:11:56;99913.88;;;27.85;79.65
8941;BME280;4505;43.406;23.226;2023-09-19T12:14:24;99902.47;;;27.35;84.97
8941;BME280;4505;43.406;23.226;2023-09-19T12:16:54;99904.75;;;27.33;86.66
8941;BME280;4505;43.406;23.226;2023-09-19T12:19:22;99893.06;;;27.56;86.97
8941;BME280;4505;43.406;23.226;2023-09-19T12:21:58;99897.28;;;27.09;88.03
8941;BME280;4505;43.406;23.226;2023-09-19T12:24:29;99901.56;;;27.43;86.46
8941;BME280;4505;43.406;23.226;2023-09-19T12:27:00;99902.94;;;26.92;91.63
8941;BME280;4505;43.406;23.226;2023-09-19T12:29:26;99896.72;;;27.96;82.45
8941;BME280;4505;43.406;23.226;2023-09-19T12:31:55;99898.97;;;28.58;76.56
8941;BME280;4505;43.406;23.226;2023-09-19T12:34:28;99894.25;;;28.71;74.71
8941;BME280;4505;43.406;23.226;2023-09-19T12:37:04;99888.38;;;28.57;75.49
8941;BME280;4505;43.406;23.226;2023-09-19T12:39:36;99883.25;;;29.10;73.44
8941;BME280;4505;43.406;23.226;2023-09-19T12:42:06;99886.50;;;29.47;68.30
8941;BME280;4505;43.406;23.226;2023-09-19T12:44:34;99879.28;;;29.23;69.83
8941;BME280;4505;43.406;23.226;2023-09-19T12:47:07;99882.53;;;29.13;72.22
8941;BME280;4505;43.406;23.226;2023-09-19T12:49:35;99882.38;;;28.51;74.96
8941;BME280;4505;43.406;23.226;2023-09-19T12:52:02;99884.75;;;28.80;73.70
8941;BME280;4505;43.406;23.226;2023-09-19T12:54:37;99884.34;;;28.39;78.00
8941;BME280;4505;43.406;23.226;2023-09-19T12:57:04;99880.72;;;29.05;71.97
8941;BME280;4505;43.406;23.226;2023-09-19T12:59:33;99877.97;;;28.74;74.71
8941;BME280;4505;43.406;23.226;2023-09-19T13:02:04;99875.22;;;28.35;78.38
8941;BME280;4505;43.406;23.226;2023-09-19T13:04:32;99868.03;;;28.54;74.91
8941;BME280;4505;43.406;23.226;2023-09-19T13:07:01;99863.03;;;28.72;73.33
8941;BME280;4505;43.406;23.226;2023-09-19T13:09:27;99864.19;;;28.71;74.22
8941;BME280;4505;43.406;23.226;2023-09-19T13:11:59;99868.59;;;29.34;70.48
8941;BME280;4505;43.406;23.226;2023-09-19T13:14:28;99864.69;;;28.61;75.01
8941;BME280;4505;43.406;23.226;2023-09-19T13:16:57;99867.06;;;28.62;76.75
8941;BME280;4505;43.406;23.226;2023-09-19T13:19:36;99864.75;;;28.37;75.95
8941;BME280;4505;43.406;23.226;2023-09-19T13:22:06;99878.16;;;27.42;84.99
8941;BME280;4505;43.406;23.226;2023-09-19T13:24:56;99864.88;;;27.88;82.41
8941;BME280;4505;43.406;23.226;2023-09-19T13:27:23;99866.59;;;27.57;83.94